EHRD/RTM METAR and TAF weather

Enter ICAO airport designator
Station Type Date Time Source
EHRD METAR 2018/04/23 11:25 UTC NOAA

EHRD 231125Z AUTO 26011KT 210V300 9999 FEW020 14/09 Q1016 NOSIG


Station Type Date Time Source
EHRD Decoded METAR 2018/04/23 11:25 UTC NOAA

Rotterdam Airport Zestienhoven, Netherlands (EHRD) 51-57N 004-27E -4M
Apr 23, 2018 - 07:25 AM EDT / 2018.04.23 1125 UTC
Wind: from the W (260 degrees) at 13 MPH (11 KT) (direction variable):0
Visibility: greater than 7 mile(s):0
Sky conditions: mostly clear
Temperature: 57 F (14 C)
Dew Point: 48 F (9 C)
Relative Humidity: 71%
Pressure (altimeter): 30.00 in. Hg (1016 hPa)
ob: EHRD 231125Z AUTO 26011KT 210V300 9999 FEW020 14/09 Q1016 NOSIG
cycle: 11

Station Type Date Time Source
EHRD TAF 2018/04/23 12:27 UTC NOAA

TAF COR EHRD 231107Z 2312/2418 26012KT 9999 FEW020 SCT045
BECMG 2316/2319 23010KT CAVOK
BECMG 2404/2407 24016KT BKN020 PROB30 2404/2409 BKN014
BECMG 2415/2418 23011KT
TEMPO 2415/2418 6000 -RADZ SCT008 BKN012


Example: see airport list